createdAt,value
2022-10-01T00:02:08.019Z,10.40
2022-10-01T00:04:37.777Z,10.25
2022-10-01T00:07:10.713Z,11.15
2022-10-01T00:09:39.114Z,9.77
2022-10-01T00:12:07.304Z,10.55
2022-10-01T00:14:36.077Z,9.53
2022-10-01T00:17:04.146Z,10.27
2022-10-01T00:19:32.015Z,11.52
2022-10-01T00:21:59.785Z,10.43
2022-10-01T00:24:28.162Z,10.50
2022-10-01T00:26:56.204Z,10.27
2022-10-01T00:29:24.089Z,10.38
2022-10-01T00:31:52.190Z,10.45
2022-10-01T00:34:20.039Z,10.13
2022-10-01T00:36:48.229Z,10.40
2022-10-01T00:39:16.696Z,9.97
2022-10-01T00:41:44.384Z,10.38
2022-10-01T00:44:33.570Z,10.45
2022-10-01T00:47:06.885Z,10.98
2022-10-01T00:49:38.703Z,10.75
2022-10-01T00:52:14.134Z,10.23
2022-10-01T00:54:50.639Z,10.63
2022-10-01T00:57:23.416Z,11.10
2022-10-01T00:59:54.861Z,10.80
2022-10-01T01:02:23.085Z,11.45
2022-10-01T01:04:50.781Z,11.07
2022-10-01T01:07:19.124Z,10.73
2022-10-01T01:09:48.982Z,10.73
2022-10-01T01:12:25.257Z,11.93
2022-10-01T01:15:17.810Z,11.02
2022-10-01T01:17:55.162Z,11.30
2022-10-01T01:20:40.487Z,13.35
2022-10-01T01:23:17.289Z,11.38
2022-10-01T01:25:55.837Z,11.25
2022-10-01T01:28:41.162Z,10.80
2022-10-01T01:31:15.247Z,11.67
2022-10-01T01:33:46.597Z,10.85
2022-10-01T01:36:23.462Z,13.25
2022-10-01T01:38:55.947Z,15.15
2022-10-01T01:41:28.513Z,16.27
2022-10-01T01:44:00.963Z,14.83
2022-10-01T01:46:34.092Z,16.67
2022-10-01T01:49:04.755Z,16.95
2022-10-01T01:52:05.960Z,15.73
2022-10-01T01:54:36.808Z,16.23
2022-10-01T01:57:06.369Z,16.97
2022-10-01T01:59:35.061Z,17.38
2022-10-01T02:02:04.631Z,18.20
2022-10-01T02:04:48.950Z,17.63
2022-10-01T02:07:17.032Z,16.30
2022-10-01T02:09:51.855Z,15.83
2022-10-01T02:12:45.882Z,18.17
2022-10-01T02:15:42.263Z,15.43
2022-10-01T02:18:22.625Z,15.10
2022-10-01T02:21:00.509Z,15.02
2022-10-01T02:23:34.251Z,13.90
2022-10-01T02:26:18.490Z,14.88
2022-10-01T02:28:49.868Z,14.82
2022-10-01T02:31:20.058Z,13.70
2022-10-01T02:33:50.806Z,13.85
2022-10-01T02:36:21.569Z,13.17
2022-10-01T02:38:51.164Z,14.82
2022-10-01T02:41:25.286Z,14.70
2022-10-01T02:43:59.337Z,13.02
2022-10-01T02:46:38.016Z,13.32
2022-10-01T02:49:07.070Z,13.37
2022-10-01T02:51:44.808Z,12.13
2022-10-01T02:54:30.521Z,12.57
2022-10-01T02:57:17.326Z,12.73
2022-10-01T02:59:45.700Z,12.20
2022-10-01T03:02:13.577Z,11.73
2022-10-01T03:04:41.460Z,14.93
2022-10-01T03:07:09.718Z,14.07
2022-10-01T03:09:37.484Z,13.48
2022-10-01T03:12:06.865Z,12.75
2022-10-01T03:14:35.093Z,13.37
2022-10-01T03:17:03.033Z,12.55
2022-10-01T03:19:30.891Z,13.73
2022-10-01T03:21:59.023Z,13.40
2022-10-01T03:24:27.066Z,12.73
2022-10-01T03:26:57.141Z,13.27
2022-10-01T03:29:26.426Z,13.65
2022-10-01T03:31:54.472Z,11.68
2022-10-01T03:34:23.519Z,12.77
2022-10-01T03:36:52.759Z,12.55
2022-10-01T03:39:21.212Z,12.93
2022-10-01T03:41:48.879Z,12.70
2022-10-01T03:44:17.912Z,12.57
2022-10-01T03:46:45.600Z,13.73
2022-10-01T03:49:13.339Z,13.00
2022-10-01T03:51:41.569Z,10.77
2022-10-01T03:54:10.037Z,10.95
2022-10-01T03:56:38.736Z,10.40
2022-10-01T03:59:07.786Z,9.23
2022-10-01T04:01:35.739Z,9.45
2022-10-01T04:04:04.424Z,10.27
2022-10-01T04:06:32.861Z,9.38
2022-10-01T04:09:01.365Z,9.27
2022-10-01T04:11:29.041Z,8.77
2022-10-01T04:13:58.305Z,9.15
2022-10-01T04:16:26.026Z,9.13
2022-10-01T04:18:54.228Z,8.80
2022-10-01T04:21:22.499Z,10.18
2022-10-01T04:23:50.590Z,9.90
2022-10-01T04:26:19.432Z,10.13
2022-10-01T04:28:47.951Z,9.57
2022-10-01T04:31:25.001Z,11.13
2022-10-01T04:33:58.200Z,12.15
2022-10-01T04:36:42.849Z,11.23
2022-10-01T04:39:15.886Z,10.98
2022-10-01T04:41:43.664Z,10.73
2022-10-01T04:44:11.498Z,11.57
2022-10-01T04:46:40.280Z,10.60
2022-10-01T04:49:08.978Z,10.10
2022-10-01T04:51:51.179Z,9.88
2022-10-01T04:54:19.294Z,11.37
2022-10-01T04:56:47.968Z,9.98
2022-10-01T04:59:16.419Z,10.98
2022-10-01T05:01:44.216Z,9.27
2022-10-01T05:04:13.541Z,8.23
2022-10-01T05:06:41.909Z,8.27
2022-10-01T05:09:09.814Z,7.22
2022-10-01T05:11:39.401Z,6.32
2022-10-01T05:14:07.836Z,7.25
2022-10-01T05:16:35.861Z,6.35
2022-10-01T05:19:03.918Z,7.33
2022-10-01T05:21:32.567Z,7.50
2022-10-01T05:24:01.140Z,7.75
2022-10-01T05:26:29.933Z,8.18
2022-10-01T05:29:00.919Z,9.30
2022-10-01T05:31:29.640Z,8.53
2022-10-01T05:33:58.647Z,9.57
2022-10-01T05:36:26.916Z,9.55
2022-10-01T05:38:57.441Z,9.02
2022-10-01T05:41:27.749Z,8.88
2022-10-01T05:43:56.285Z,8.20
2022-10-01T05:46:24.171Z,8.10
2022-10-01T05:48:52.239Z,8.30
2022-10-01T05:51:20.292Z,8.35
2022-10-01T05:53:51.379Z,8.60
2022-10-01T05:56:19.597Z,7.37
2022-10-01T05:58:48.247Z,7.18
2022-10-01T06:01:15.936Z,9.05
2022-10-01T06:03:44.582Z,9.20
2022-10-01T06:06:13.146Z,12.30
2022-10-01T06:08:40.888Z,13.73
2022-10-01T06:11:18.721Z,11.13
2022-10-01T06:13:47.092Z,9.50
2022-10-01T06:16:15.340Z,10.10
2022-10-01T06:18:43.691Z,10.13
2022-10-01T06:21:11.740Z,10.80
2022-10-01T06:23:41.279Z,11.00
2022-10-01T06:26:09.171Z,10.77
2022-10-01T06:28:56.873Z,11.93
2022-10-01T06:31:30.883Z,11.45
2022-10-01T06:33:59.292Z,11.43
2022-10-01T06:36:27.337Z,12.05
2022-10-01T06:38:56.079Z,11.95
2022-10-01T06:41:25.360Z,12.43
2022-10-01T06:43:53.028Z,10.70
2022-10-01T06:46:20.938Z,10.30
2022-10-01T06:48:49.279Z,14.30
2022-10-01T06:51:37.186Z,20.75
2022-10-01T06:54:05.362Z,24.83
2022-10-01T06:56:33.054Z,30.20
2022-10-01T06:59:00.833Z,24.77
2022-10-01T07:01:28.947Z,15.43
2022-10-01T07:03:57.094Z,15.95
2022-10-01T07:06:26.283Z,17.30
2022-10-01T07:08:55.079Z,23.58
2022-10-01T07:11:22.886Z,18.07
2022-10-01T07:13:54.565Z,20.75
2022-10-01T07:16:23.082Z,22.00
2022-10-01T07:18:50.826Z,20.02
2022-10-01T07:21:18.555Z,15.05
2022-10-01T07:23:48.610Z,12.10
2022-10-01T07:26:16.651Z,10.25
2022-10-01T07:28:45.312Z,9.32
2022-10-01T07:31:13.940Z,8.63
2022-10-01T07:33:42.218Z,8.38
2022-10-01T07:36:13.997Z,8.63
2022-10-01T07:38:44.268Z,8.48
2022-10-01T07:41:12.261Z,10.20
2022-10-01T07:43:44.846Z,10.35
2022-10-01T07:46:13.325Z,9.30
2022-10-01T07:48:42.405Z,8.90
2022-10-01T07:51:10.228Z,9.40
2022-10-01T07:53:38.182Z,8.55
2022-10-01T07:56:08.812Z,8.15
2022-10-01T07:58:37.040Z,7.40
2022-10-01T08:01:05.624Z,6.60
2022-10-01T08:03:33.346Z,15.05
2022-10-01T08:06:03.938Z,6.95
2022-10-01T08:08:32.250Z,6.03
2022-10-01T08:11:02.790Z,6.60
2022-10-01T08:13:31.731Z,6.30
2022-10-01T08:16:02.720Z,5.90
2022-10-01T08:18:30.845Z,5.78
2022-10-01T08:21:02.466Z,6.57
2022-10-01T08:23:33.733Z,5.97
2022-10-01T08:26:07.798Z,6.83
2022-10-01T08:28:36.620Z,6.82
2022-10-01T08:31:07.935Z,6.63
2022-10-01T08:33:37.667Z,6.60
2022-10-01T08:36:10.229Z,7.53
2022-10-01T08:38:39.919Z,6.80
2022-10-01T08:41:23.334Z,7.22
2022-10-01T08:43:53.458Z,7.18
2022-10-01T08:46:25.264Z,7.13
2022-10-01T08:48:58.983Z,7.50
2022-10-01T08:51:45.393Z,6.07
2022-10-01T08:54:29.317Z,6.28
2022-10-01T08:57:01.458Z,6.97
2022-10-01T08:59:44.067Z,6.30
2022-10-01T09:02:33.109Z,6.43
2022-10-01T09:05:15.910Z,6.50
2022-10-01T09:08:10.019Z,5.95
2022-10-01T09:10:46.073Z,7.15
2022-10-01T09:13:16.889Z,7.10
2022-10-01T09:15:57.468Z,7.03
2022-10-01T09:19:02.761Z,6.80
2022-10-01T09:21:51.673Z,7.25
2022-10-01T09:24:22.716Z,7.50
2022-10-01T09:26:51.203Z,7.72
2022-10-01T09:29:40.196Z,9.07
2022-10-01T09:32:14.938Z,7.70
2022-10-01T09:34:45.280Z,8.30
2022-10-01T09:37:34.975Z,7.53
2022-10-01T09:40:24.762Z,6.35
2022-10-01T09:42:53.517Z,7.07
2022-10-01T09:45:24.067Z,5.50
2022-10-01T09:47:55.079Z,5.25
2022-10-01T09:50:41.588Z,5.28
2022-10-01T09:53:18.604Z,5.47
2022-10-01T09:55:59.857Z,5.22
2022-10-01T09:58:30.559Z,5.20
2022-10-01T10:01:00.317Z,4.70
2022-10-01T10:03:31.298Z,4.85
2022-10-01T10:06:00.376Z,4.88
2022-10-01T10:08:35.174Z,3.60
2022-10-01T10:11:11.642Z,4.10
2022-10-01T10:13:42.001Z,4.28
2022-10-01T10:16:18.706Z,4.13
2022-10-01T10:18:52.599Z,4.15
2022-10-01T10:21:26.934Z,4.00
2022-10-01T10:23:57.434Z,3.90
2022-10-01T10:26:41.118Z,3.97
2022-10-01T10:29:31.863Z,4.30
2022-10-01T10:32:05.370Z,3.70
2022-10-01T10:34:41.122Z,4.30
2022-10-01T10:37:15.429Z,3.60
2022-10-01T10:39:50.472Z,3.78
2022-10-01T10:42:20.266Z,4.05
2022-10-01T10:44:51.666Z,3.53
2022-10-01T10:47:22.663Z,3.97
2022-10-01T10:49:57.948Z,3.90
2022-10-01T10:52:32.645Z,3.78
2022-10-01T10:55:02.975Z,4.07
2022-10-01T10:57:35.126Z,5.85
2022-10-01T11:00:19.052Z,5.10
2022-10-01T11:03:06.902Z,9.43
2022-10-01T11:05:42.476Z,5.38
2022-10-01T11:08:17.902Z,4.00
2022-10-01T11:11:21.450Z,4.43
2022-10-01T11:13:51.858Z,4.75
2022-10-01T11:16:24.742Z,3.73
2022-10-01T11:19:36.265Z,3.28
2022-10-01T11:22:26.218Z,3.28
2022-10-01T11:25:22.672Z,3.00
2022-10-01T11:28:00.149Z,3.00
2022-10-01T11:30:48.771Z,3.10
2022-10-01T11:33:20.317Z,2.95
2022-10-01T11:36:29.353Z,3.78
2022-10-01T11:39:04.531Z,3.28
2022-10-01T11:41:40.307Z,2.90
2022-10-01T11:44:26.769Z,3.67
2022-10-01T11:47:13.686Z,3.08
2022-10-01T11:49:48.428Z,4.03
2022-10-01T11:52:34.171Z,3.85
2022-10-01T11:55:29.243Z,3.63
2022-10-01T11:58:21.392Z,8.43
2022-10-01T12:01:00.466Z,10.95
2022-10-01T12:03:38.071Z,17.50
2022-10-01T12:06:10.967Z,20.08
2022-10-01T12:08:43.209Z,20.05
2022-10-01T12:11:20.863Z,10.60
2022-10-01T12:13:55.627Z,9.15
2022-10-01T12:16:45.237Z,12.68
2022-10-01T12:19:47.165Z,11.82
2022-10-01T12:22:49.312Z,19.02
2022-10-01T12:25:35.491Z,19.20
2022-10-01T12:28:13.341Z,25.63
2022-10-01T12:31:07.676Z,21.88
2022-10-01T12:34:00.108Z,22.02
2022-10-01T12:36:49.958Z,24.55
2022-10-01T12:40:01.445Z,15.50
2022-10-01T12:42:48.528Z,8.07
2022-10-01T12:45:44.172Z,5.80
2022-10-01T12:48:32.336Z,3.90
2022-10-01T12:51:09.255Z,4.10
2022-10-01T12:53:51.361Z,3.60
2022-10-01T12:56:37.391Z,3.90
2022-10-01T12:59:21.468Z,3.60
2022-10-01T13:02:03.481Z,5.40
2022-10-01T13:04:47.190Z,5.45
2022-10-01T13:07:49.385Z,4.50
2022-10-01T13:11:00.804Z,4.55
2022-10-01T13:13:34.092Z,6.47
2022-10-01T13:16:24.506Z,7.03
2022-10-01T13:19:25.540Z,6.90
2022-10-01T13:22:09.820Z,7.37
2022-10-01T13:25:20.555Z,6.85
2022-10-01T13:28:16.848Z,7.05
2022-10-01T13:31:02.384Z,5.38
2022-10-01T13:33:33.390Z,4.78
2022-10-01T13:36:05.546Z,6.00
2022-10-01T13:38:42.956Z,4.05
2022-10-01T13:41:32.816Z,3.78
2022-10-01T13:44:27.283Z,4.93
2022-10-01T13:47:07.651Z,3.72
2022-10-01T13:49:37.378Z,4.20
2022-10-01T13:52:06.375Z,3.85
2022-10-01T13:54:49.961Z,4.13
2022-10-01T13:57:37.358Z,4.03
2022-10-01T14:00:18.414Z,3.78
2022-10-01T14:03:23.887Z,28.43
2022-10-01T14:05:58.480Z,27.38
2022-10-01T14:08:34.525Z,16.65
2022-10-01T14:11:27.568Z,5.80
2022-10-01T14:14:17.417Z,4.57
2022-10-01T14:16:47.822Z,5.00
2022-10-01T14:19:21.867Z,5.50
2022-10-01T14:22:17.974Z,5.70
2022-10-01T14:24:45.988Z,5.85
2022-10-01T14:27:28.996Z,6.28
2022-10-01T14:30:34.589Z,6.73
2022-10-01T14:33:38.248Z,6.13
2022-10-01T14:36:40.408Z,5.60
2022-10-01T14:39:21.361Z,6.68
2022-10-01T14:41:51.801Z,5.10
2022-10-01T14:44:21.976Z,5.07
2022-10-01T14:46:54.996Z,5.43
2022-10-01T14:49:30.622Z,5.88
2022-10-01T14:52:21.526Z,5.40
2022-10-01T14:54:52.403Z,5.32
2022-10-01T14:57:38.660Z,5.10
2022-10-01T15:00:15.888Z,5.50
2022-10-01T15:02:49.733Z,5.10
2022-10-01T15:05:29.744Z,6.07
2022-10-01T15:07:58.131Z,5.30
2022-10-01T15:10:27.861Z,5.40
2022-10-01T15:12:57.116Z,5.55
2022-10-01T15:15:34.345Z,5.57
2022-10-01T15:18:05.120Z,5.50
2022-10-01T15:20:33.564Z,6.13
2022-10-01T15:23:01.972Z,4.30
2022-10-01T15:25:31.925Z,3.85
2022-10-01T15:28:00.460Z,3.95
2022-10-01T15:30:28.907Z,4.07
2022-10-01T15:32:57.171Z,5.68
2022-10-01T15:35:25.865Z,6.17
2022-10-01T15:37:54.948Z,4.47
2022-10-01T15:40:30.474Z,5.05
2022-10-01T15:43:08.930Z,5.70
2022-10-01T15:45:36.983Z,6.15
2022-10-01T15:48:05.401Z,6.30
2022-10-01T15:50:39.725Z,5.15
2022-10-01T15:53:22.014Z,8.52
2022-10-01T15:55:52.845Z,8.57
2022-10-01T15:58:35.377Z,7.18
2022-10-01T16:01:09.619Z,6.77
2022-10-01T16:03:51.092Z,5.07
2022-10-01T16:06:28.646Z,6.20
2022-10-01T16:09:19.481Z,5.90
2022-10-01T16:11:59.154Z,5.95
2022-10-01T16:14:39.572Z,5.40
2022-10-01T16:17:20.026Z,5.70
2022-10-01T16:19:53.784Z,6.82
2022-10-01T16:22:25.670Z,6.72
2022-10-01T16:24:55.586Z,6.60
2022-10-01T16:27:35.757Z,7.60
2022-10-01T16:30:12.718Z,6.82
2022-10-01T16:32:40.982Z,6.43
2022-10-01T16:35:17.438Z,6.60
2022-10-01T16:37:49.689Z,6.28
2022-10-01T16:40:21.309Z,6.33
2022-10-01T16:42:50.918Z,6.07
2022-10-01T16:45:24.599Z,6.13
2022-10-01T16:47:56.985Z,5.82
2022-10-01T16:50:25.693Z,5.80
2022-10-01T16:52:56.946Z,6.40
2022-10-01T16:55:30.273Z,8.38
2022-10-01T16:58:11.594Z,9.38
2022-10-01T17:00:40.422Z,8.40
2022-10-01T17:03:16.369Z,8.25
2022-10-01T17:05:45.679Z,7.67
2022-10-01T17:08:15.275Z,8.05
2022-10-01T17:10:46.308Z,9.70
2022-10-01T17:13:16.157Z,7.97
2022-10-01T17:15:44.773Z,10.07
2022-10-01T17:18:14.818Z,9.43
2022-10-01T17:20:44.988Z,10.45
2022-10-01T17:23:17.305Z,10.10
2022-10-01T17:25:47.571Z,12.95
2022-10-01T17:28:21.009Z,13.93
2022-10-01T17:30:51.446Z,14.27
2022-10-01T17:33:21.133Z,13.57
2022-10-01T17:35:56.413Z,12.52
2022-10-01T17:38:25.614Z,12.50
2022-10-01T17:40:56.683Z,13.60
2022-10-01T17:43:25.898Z,13.93
2022-10-01T17:45:59.934Z,12.80
2022-10-01T17:48:30.794Z,13.45
2022-10-01T17:51:10.748Z,15.25
2022-10-01T17:53:42.744Z,23.63
2022-10-01T17:56:18.490Z,15.40
2022-10-01T17:58:47.291Z,12.32
2022-10-01T18:01:20.059Z,21.58
2022-10-01T18:03:53.391Z,15.70
2022-10-01T18:06:21.246Z,16.63
2022-10-01T18:08:56.897Z,23.53
2022-10-01T18:11:27.609Z,14.15
2022-10-01T18:13:56.071Z,14.57
2022-10-01T18:16:25.436Z,13.52
2022-10-01T18:21:47.870Z,15.80
2022-10-01T18:24:16.641Z,13.93
2022-10-01T18:26:46.008Z,11.80
2022-10-01T18:29:27.381Z,10.88
2022-10-01T18:32:18.050Z,10.60
2022-10-01T18:35:01.428Z,11.27
2022-10-01T18:37:39.843Z,18.65
2022-10-01T18:40:15.525Z,13.90
2022-10-01T18:43:00.021Z,12.75
2022-10-01T18:46:00.085Z,14.35
2022-10-01T18:48:51.890Z,13.83
2022-10-01T18:51:52.768Z,14.65
2022-10-01T18:54:26.464Z,15.68
2022-10-01T18:57:38.048Z,15.40
2022-10-01T19:00:14.821Z,9.32
2022-10-01T19:02:58.054Z,8.57
2022-10-01T19:06:13.036Z,12.02
2022-10-01T19:09:00.694Z,13.05
2022-10-01T19:11:51.968Z,10.98
2022-10-01T19:14:42.193Z,15.35
2022-10-01T19:17:13.552Z,18.60
2022-10-01T19:20:12.745Z,11.95
2022-10-01T19:23:11.755Z,10.63
2022-10-01T19:25:48.024Z,10.02
2022-10-01T19:28:33.916Z,10.40
2022-10-01T19:31:23.750Z,10.00
2022-10-01T19:33:59.865Z,10.73
2022-10-01T19:36:35.192Z,10.02
2022-10-01T19:39:09.396Z,9.00
2022-10-01T19:41:59.870Z,8.88
2022-10-01T19:44:42.422Z,10.27
2022-10-01T19:47:34.625Z,9.98
2022-10-01T19:50:16.657Z,9.32
2022-10-01T19:52:48.559Z,8.70
2022-10-01T19:55:18.398Z,10.43
2022-10-01T19:57:46.924Z,9.07
2022-10-01T20:00:22.105Z,8.60
2022-10-01T20:03:18.321Z,8.63
2022-10-01T20:05:55.870Z,9.07
2022-10-01T20:08:40.382Z,8.43
2022-10-01T20:11:14.408Z,8.10
2022-10-01T20:14:00.590Z,6.90
2022-10-01T20:16:41.063Z,7.10
2022-10-01T20:19:29.333Z,6.80
2022-10-01T20:22:12.254Z,4.47
2022-10-01T20:24:58.779Z,4.13
2022-10-01T20:27:55.263Z,2.80
2022-10-01T20:30:24.157Z,2.75
2022-10-01T20:33:36.976Z,1.77
2022-10-01T20:36:16.169Z,1.60
2022-10-01T20:38:50.271Z,2.27
2022-10-01T20:41:20.505Z,1.60
2022-10-01T20:43:53.170Z,1.60
2022-10-01T20:46:35.620Z,1.65
2022-10-01T20:49:11.659Z,1.48
2022-10-01T20:52:03.987Z,1.20
2022-10-01T20:54:37.194Z,1.60
2022-10-01T20:57:16.205Z,1.17
2022-10-01T20:59:48.831Z,0.98
2022-10-01T21:02:29.091Z,1.10
2022-10-01T21:05:05.823Z,1.10
2022-10-01T21:07:49.081Z,1.17
2022-10-01T21:10:39.158Z,1.20
2022-10-01T21:13:27.676Z,1.05
2022-10-01T21:16:06.196Z,1.80
2022-10-01T21:19:02.148Z,2.10
2022-10-01T21:21:56.437Z,1.33
2022-10-01T21:24:59.468Z,1.02
2022-10-01T21:28:01.587Z,3.63
2022-10-01T21:30:45.185Z,3.95
2022-10-01T21:33:27.816Z,5.53
2022-10-01T21:36:23.296Z,3.28
2022-10-01T21:38:59.299Z,1.60
2022-10-01T21:41:49.473Z,1.10
2022-10-01T21:44:55.792Z,1.17
2022-10-01T21:47:26.328Z,0.90
2022-10-01T21:50:11.101Z,0.60
2022-10-01T21:52:48.486Z,0.90
2022-10-01T21:55:47.756Z,0.70
2022-10-01T21:58:44.190Z,0.82
2022-10-01T22:01:39.195Z,0.73
2022-10-01T22:04:13.436Z,1.00
2022-10-01T22:06:51.662Z,1.10
2022-10-01T22:09:35.364Z,1.15
2022-10-01T22:12:06.450Z,0.90
2022-10-01T22:14:34.744Z,0.87
2022-10-01T22:17:22.246Z,0.80
2022-10-01T22:19:53.333Z,1.00
2022-10-01T22:22:21.047Z,1.08
2022-10-01T22:24:53.900Z,4.50
2022-10-01T22:27:44.682Z,3.33
2022-10-01T22:30:34.125Z,2.33
2022-10-01T22:33:10.894Z,4.35
2022-10-01T22:35:44.766Z,4.05
2022-10-01T22:38:33.743Z,3.75
2022-10-01T22:41:11.509Z,3.70
2022-10-01T22:43:42.114Z,3.47
2022-10-01T22:46:43.130Z,2.25
2022-10-01T22:49:11.132Z,1.10
2022-10-01T22:51:56.848Z,2.00
2022-10-01T22:54:46.243Z,1.73
2022-10-01T22:57:19.780Z,1.67
2022-10-01T23:00:11.015Z,1.20
2022-10-01T23:03:29.656Z,2.70
2022-10-01T23:06:06.547Z,1.67
2022-10-01T23:08:55.147Z,1.70
2022-10-01T23:11:50.688Z,1.50
2022-10-01T23:14:50.431Z,1.40
2022-10-01T23:17:23.996Z,0.90
2022-10-01T23:20:12.464Z,0.60
2022-10-01T23:22:55.000Z,0.90
2022-10-01T23:25:37.267Z,0.68
2022-10-01T23:28:39.351Z,0.82
2022-10-01T23:31:13.254Z,0.60
2022-10-01T23:34:17.786Z,1.00
2022-10-01T23:36:57.204Z,0.60
2022-10-01T23:39:43.619Z,0.93
2022-10-01T23:42:35.107Z,0.90
2022-10-01T23:45:15.612Z,0.90
2022-10-01T23:48:21.395Z,1.08
2022-10-01T23:51:02.982Z,1.00
2022-10-01T23:53:41.494Z,0.93
2022-10-01T23:56:34.638Z,1.00
2022-10-01T23:59:21.923Z,1.10
